sensor_id;sensor_type;location;lat;lon;timestamp;P1;durP1;ratioP1;P2;durP2;ratioP2
78834;SDS011;68187;42.682;23.352;2023-04-15T00:00:32;4.25;;;1.52;;
78834;SDS011;68187;42.682;23.352;2023-04-15T00:02:59;5.00;;;2.33;;
78834;SDS011;68187;42.682;23.352;2023-04-15T00:05:28;6.25;;;2.55;;
78834;SDS011;68187;42.682;23.352;2023-04-15T00:07:55;6.30;;;2.05;;
78834;SDS011;68187;42.682;23.352;2023-04-15T00:10:21;5.40;;;2.03;;
78834;SDS011;68187;42.682;23.352;2023-04-15T00:12:48;4.97;;;2.20;;
78834;SDS011;68187;42.682;23.352;2023-04-15T00:15:15;6.50;;;2.67;;
78834;SDS011;68187;42.682;23.352;2023-04-15T00:17:42;7.20;;;4.75;;
78834;SDS011;68187;42.682;23.352;2023-04-15T00:20:09;8.63;;;3.17;;
78834;SDS011;68187;42.682;23.352;2023-04-15T00:22:37;7.38;;;2.97;;
78834;SDS011;68187;42.682;23.352;2023-04-15T00:25:04;7.78;;;5.22;;
78834;SDS011;68187;42.682;23.352;2023-04-15T00:27:31;7.60;;;4.00;;
78834;SDS011;68187;42.682;23.352;2023-04-15T00:29:58;8.45;;;3.80;;
78834;SDS011;68187;42.682;23.352;2023-04-15T00:32:25;8.63;;;5.00;;
78834;SDS011;68187;42.682;23.352;2023-04-15T00:34:51;8.27;;;4.05;;
78834;SDS011;68187;42.682;23.352;2023-04-15T00:37:18;9.07;;;4.18;;
78834;SDS011;68187;42.682;23.352;2023-04-15T00:39:46;8.10;;;3.72;;
78834;SDS011;68187;42.682;23.352;2023-04-15T00:42:13;5.97;;;3.40;;
78834;SDS011;68187;42.682;23.352;2023-04-15T00:44:40;8.70;;;4.50;;
78834;SDS011;68187;42.682;23.352;2023-04-15T00:47:07;8.50;;;4.18;;
78834;SDS011;68187;42.682;23.352;2023-04-15T00:49:34;8.80;;;4.10;;
78834;SDS011;68187;42.682;23.352;2023-04-15T00:52:01;12.50;;;4.70;;
78834;SDS011;68187;42.682;23.352;2023-04-15T00:54:28;7.50;;;4.28;;
78834;SDS011;68187;42.682;23.352;2023-04-15T00:56:56;8.82;;;4.47;;
78834;SDS011;68187;42.682;23.352;2023-04-15T00:59:23;8.18;;;3.33;;
78834;SDS011;68187;42.682;23.352;2023-04-15T01:01:51;8.63;;;3.72;;
78834;SDS011;68187;42.682;23.352;2023-04-15T01:04:18;6.93;;;3.53;;
78834;SDS011;68187;42.682;23.352;2023-04-15T01:06:45;6.82;;;3.05;;
78834;SDS011;68187;42.682;23.352;2023-04-15T01:09:11;8.43;;;2.53;;
78834;SDS011;68187;42.682;23.352;2023-04-15T01:11:38;5.70;;;2.00;;
78834;SDS011;68187;42.682;23.352;2023-04-15T01:14:06;6.35;;;2.70;;
78834;SDS011;68187;42.682;23.352;2023-04-15T01:16:34;6.13;;;3.00;;
78834;SDS011;68187;42.682;23.352;2023-04-15T01:19:03;9.15;;;2.70;;
78834;SDS011;68187;42.682;23.352;2023-04-15T01:21:31;5.80;;;2.58;;
78834;SDS011;68187;42.682;23.352;2023-04-15T01:23:58;5.95;;;2.85;;
78834;SDS011;68187;42.682;23.352;2023-04-15T01:26:28;6.50;;;2.97;;
78834;SDS011;68187;42.682;23.352;2023-04-15T01:28:54;7.00;;;3.00;;
78834;SDS011;68187;42.682;23.352;2023-04-15T01:31:21;6.57;;;2.38;;
78834;SDS011;68187;42.682;23.352;2023-04-15T01:33:48;5.80;;;2.45;;
78834;SDS011;68187;42.682;23.352;2023-04-15T01:36:14;8.40;;;2.55;;
78834;SDS011;68187;42.682;23.352;2023-04-15T01:38:41;7.22;;;3.40;;
78834;SDS011;68187;42.682;23.352;2023-04-15T01:41:08;6.90;;;2.40;;
78834;SDS011;68187;42.682;23.352;2023-04-15T01:43:36;7.25;;;3.97;;
78834;SDS011;68187;42.682;23.352;2023-04-15T01:46:03;7.40;;;2.75;;
78834;SDS011;68187;42.682;23.352;2023-04-15T01:48:30;6.40;;;3.05;;
78834;SDS011;68187;42.682;23.352;2023-04-15T01:50:57;5.95;;;2.53;;
78834;SDS011;68187;42.682;23.352;2023-04-15T01:53:24;7.07;;;3.53;;
78834;SDS011;68187;42.682;23.352;2023-04-15T01:55:51;7.53;;;3.00;;
78834;SDS011;68187;42.682;23.352;2023-04-15T01:58:18;9.27;;;3.35;;
78834;SDS011;68187;42.682;23.352;2023-04-15T02:00:47;7.20;;;3.00;;
78834;SDS011;68187;42.682;23.352;2023-04-15T02:03:14;8.50;;;2.97;;
78834;SDS011;68187;42.682;23.352;2023-04-15T02:05:41;6.97;;;2.88;;
78834;SDS011;68187;42.682;23.352;2023-04-15T02:08:08;7.45;;;3.35;;
78834;SDS011;68187;42.682;23.352;2023-04-15T02:10:34;9.60;;;3.78;;
78834;SDS011;68187;42.682;23.352;2023-04-15T02:13:01;6.95;;;3.88;;
78834;SDS011;68187;42.682;23.352;2023-04-15T02:15:28;6.97;;;3.83;;
78834;SDS011;68187;42.682;23.352;2023-04-15T02:17:56;7.35;;;3.05;;
78834;SDS011;68187;42.682;23.352;2023-04-15T02:20:24;8.30;;;3.05;;
78834;SDS011;68187;42.682;23.352;2023-04-15T02:22:51;7.55;;;3.40;;
78834;SDS011;68187;42.682;23.352;2023-04-15T02:25:18;7.00;;;2.83;;
78834;SDS011;68187;42.682;23.352;2023-04-15T02:27:45;6.95;;;3.25;;
78834;SDS011;68187;42.682;23.352;2023-04-15T02:30:11;7.13;;;3.50;;
78834;SDS011;68187;42.682;23.352;2023-04-15T02:32:39;7.15;;;3.75;;
78834;SDS011;68187;42.682;23.352;2023-04-15T02:35:10;8.52;;;3.85;;
78834;SDS011;68187;42.682;23.352;2023-04-15T02:37:37;6.30;;;2.72;;
78834;SDS011;68187;42.682;23.352;2023-04-15T02:40:08;7.10;;;3.38;;
78834;SDS011;68187;42.682;23.352;2023-04-15T02:42:36;9.25;;;4.35;;
78834;SDS011;68187;42.682;23.352;2023-04-15T02:45:04;10.90;;;5.15;;
78834;SDS011;68187;42.682;23.352;2023-04-15T02:47:31;7.65;;;4.63;;
78834;SDS011;68187;42.682;23.352;2023-04-15T02:49:58;9.88;;;5.32;;
78834;SDS011;68187;42.682;23.352;2023-04-15T02:52:27;8.57;;;5.35;;
78834;SDS011;68187;42.682;23.352;2023-04-15T02:54:53;10.35;;;5.38;;
78834;SDS011;68187;42.682;23.352;2023-04-15T02:57:24;13.73;;;7.22;;
78834;SDS011;68187;42.682;23.352;2023-04-15T02:59:51;8.65;;;5.90;;
78834;SDS011;68187;42.682;23.352;2023-04-15T03:02:18;12.10;;;5.63;;
78834;SDS011;68187;42.682;23.352;2023-04-15T03:04:45;10.95;;;4.85;;
78834;SDS011;68187;42.682;23.352;2023-04-15T03:07:11;8.45;;;4.55;;
78834;SDS011;68187;42.682;23.352;2023-04-15T03:09:39;8.23;;;4.75;;
78834;SDS011;68187;42.682;23.352;2023-04-15T03:12:06;6.43;;;3.47;;
78834;SDS011;68187;42.682;23.352;2023-04-15T03:14:33;8.68;;;3.88;;
78834;SDS011;68187;42.682;23.352;2023-04-15T03:17:00;7.13;;;4.68;;
78834;SDS011;68187;42.682;23.352;2023-04-15T03:19:27;8.32;;;4.38;;
78834;SDS011;68187;42.682;23.352;2023-04-15T03:21:53;7.03;;;4.45;;
78834;SDS011;68187;42.682;23.352;2023-04-15T03:24:20;8.95;;;4.13;;
78834;SDS011;68187;42.682;23.352;2023-04-15T03:26:48;7.78;;;3.70;;
78834;SDS011;68187;42.682;23.352;2023-04-15T03:29:15;10.32;;;4.65;;
78834;SDS011;68187;42.682;23.352;2023-04-15T03:31:42;10.48;;;3.92;;
78834;SDS011;68187;42.682;23.352;2023-04-15T03:34:08;10.27;;;4.32;;
78834;SDS011;68187;42.682;23.352;2023-04-15T03:36:35;7.53;;;4.30;;
78834;SDS011;68187;42.682;23.352;2023-04-15T03:39:02;9.00;;;5.07;;
78834;SDS011;68187;42.682;23.352;2023-04-15T03:41:29;10.07;;;4.32;;
78834;SDS011;68187;42.682;23.352;2023-04-15T03:43:58;8.23;;;4.25;;
78834;SDS011;68187;42.682;23.352;2023-04-15T03:46:25;8.10;;;4.13;;
78834;SDS011;68187;42.682;23.352;2023-04-15T03:48:51;7.88;;;4.63;;
78834;SDS011;68187;42.682;23.352;2023-04-15T03:51:18;8.45;;;4.57;;
78834;SDS011;68187;42.682;23.352;2023-04-15T03:53:45;7.60;;;3.88;;
78834;SDS011;68187;42.682;23.352;2023-04-15T03:56:12;9.23;;;3.85;;
78834;SDS011;68187;42.682;23.352;2023-04-15T03:58:38;7.75;;;4.72;;
78834;SDS011;68187;42.682;23.352;2023-04-15T04:01:07;7.70;;;4.80;;
78834;SDS011;68187;42.682;23.352;2023-04-15T04:03:33;8.25;;;4.32;;
78834;SDS011;68187;42.682;23.352;2023-04-15T04:06:01;7.47;;;4.22;;
78834;SDS011;68187;42.682;23.352;2023-04-15T04:08:28;8.10;;;4.90;;
78834;SDS011;68187;42.682;23.352;2023-04-15T04:10:54;8.57;;;4.45;;
78834;SDS011;68187;42.682;23.352;2023-04-15T04:13:21;10.32;;;5.13;;
78834;SDS011;68187;42.682;23.352;2023-04-15T04:15:48;8.48;;;3.83;;
78834;SDS011;68187;42.682;23.352;2023-04-15T04:18:16;7.28;;;3.80;;
78834;SDS011;68187;42.682;23.352;2023-04-15T04:20:42;8.80;;;4.40;;
78834;SDS011;68187;42.682;23.352;2023-04-15T04:23:09;9.32;;;4.50;;
78834;SDS011;68187;42.682;23.352;2023-04-15T04:25:36;9.80;;;4.50;;
78834;SDS011;68187;42.682;23.352;2023-04-15T04:28:03;8.70;;;4.72;;
78834;SDS011;68187;42.682;23.352;2023-04-15T04:30:30;8.40;;;4.40;;
78834;SDS011;68187;42.682;23.352;2023-04-15T04:32:56;7.07;;;3.65;;
78834;SDS011;68187;42.682;23.352;2023-04-15T04:35:25;8.55;;;3.75;;
78834;SDS011;68187;42.682;23.352;2023-04-15T04:37:51;9.23;;;5.60;;
78834;SDS011;68187;42.682;23.352;2023-04-15T04:40:18;10.02;;;4.63;;
78834;SDS011;68187;42.682;23.352;2023-04-15T04:42:46;9.35;;;4.65;;
78834;SDS011;68187;42.682;23.352;2023-04-15T04:45:12;6.50;;;3.58;;
78834;SDS011;68187;42.682;23.352;2023-04-15T04:47:39;8.25;;;3.38;;
78834;SDS011;68187;42.682;23.352;2023-04-15T04:50:06;9.65;;;4.20;;
78834;SDS011;68187;42.682;23.352;2023-04-15T04:52:35;10.00;;;5.47;;
78834;SDS011;68187;42.682;23.352;2023-04-15T04:55:02;12.95;;;7.45;;
78834;SDS011;68187;42.682;23.352;2023-04-15T04:57:29;11.63;;;7.15;;
78834;SDS011;68187;42.682;23.352;2023-04-15T04:59:56;10.95;;;5.97;;
78834;SDS011;68187;42.682;23.352;2023-04-15T05:02:23;11.18;;;5.60;;
78834;SDS011;68187;42.682;23.352;2023-04-15T05:04:51;10.90;;;7.03;;
78834;SDS011;68187;42.682;23.352;2023-04-15T05:07:18;11.85;;;6.82;;
78834;SDS011;68187;42.682;23.352;2023-04-15T05:09:46;12.30;;;6.45;;
78834;SDS011;68187;42.682;23.352;2023-04-15T05:12:13;10.20;;;6.70;;
78834;SDS011;68187;42.682;23.352;2023-04-15T05:14:40;10.65;;;5.70;;
78834;SDS011;68187;42.682;23.352;2023-04-15T05:17:07;10.73;;;6.15;;
78834;SDS011;68187;42.682;23.352;2023-04-15T05:19:34;8.98;;;5.25;;
78834;SDS011;68187;42.682;23.352;2023-04-15T05:22:00;9.80;;;5.90;;
78834;SDS011;68187;42.682;23.352;2023-04-15T05:24:27;10.27;;;5.70;;
78834;SDS011;68187;42.682;23.352;2023-04-15T05:26:55;11.55;;;5.43;;
78834;SDS011;68187;42.682;23.352;2023-04-15T05:29:22;9.20;;;4.05;;
78834;SDS011;68187;42.682;23.352;2023-04-15T05:31:49;9.85;;;4.38;;
78834;SDS011;68187;42.682;23.352;2023-04-15T05:34:16;9.98;;;4.40;;
78834;SDS011;68187;42.682;23.352;2023-04-15T05:36:42;10.10;;;4.68;;
78834;SDS011;68187;42.682;23.352;2023-04-15T05:39:09;10.48;;;4.22;;
78834;SDS011;68187;42.682;23.352;2023-04-15T05:41:36;10.02;;;5.53;;
78834;SDS011;68187;42.682;23.352;2023-04-15T05:44:04;8.82;;;4.15;;
78834;SDS011;68187;42.682;23.352;2023-04-15T05:46:31;8.07;;;4.22;;
78834;SDS011;68187;42.682;23.352;2023-04-15T05:48:58;10.38;;;4.45;;
78834;SDS011;68187;42.682;23.352;2023-04-15T05:51:24;9.98;;;4.72;;
78834;SDS011;68187;42.682;23.352;2023-04-15T05:53:51;11.45;;;4.57;;
78834;SDS011;68187;42.682;23.352;2023-04-15T05:56:18;8.60;;;4.25;;
78834;SDS011;68187;42.682;23.352;2023-04-15T05:58:45;10.65;;;4.10;;
78834;SDS011;68187;42.682;23.352;2023-04-15T06:01:13;14.60;;;5.13;;
78834;SDS011;68187;42.682;23.352;2023-04-15T06:03:40;8.23;;;4.20;;
78834;SDS011;68187;42.682;23.352;2023-04-15T06:06:07;9.85;;;5.75;;
78834;SDS011;68187;42.682;23.352;2023-04-15T06:08:34;11.82;;;5.10;;
78834;SDS011;68187;42.682;23.352;2023-04-15T06:11:00;9.82;;;4.93;;
78834;SDS011;68187;42.682;23.352;2023-04-15T06:13:27;14.98;;;5.20;;
78834;SDS011;68187;42.682;23.352;2023-04-15T06:15:54;9.48;;;4.90;;
78834;SDS011;68187;42.682;23.352;2023-04-15T06:18:22;9.30;;;4.93;;
78834;SDS011;68187;42.682;23.352;2023-04-15T06:20:49;9.77;;;4.43;;
78834;SDS011;68187;42.682;23.352;2023-04-15T06:23:16;7.25;;;3.80;;
78834;SDS011;68187;42.682;23.352;2023-04-15T06:25:43;8.77;;;4.32;;
78834;SDS011;68187;42.682;23.352;2023-04-15T06:28:09;12.27;;;5.55;;
78834;SDS011;68187;42.682;23.352;2023-04-15T06:30:36;8.63;;;5.05;;
78834;SDS011;68187;42.682;23.352;2023-04-15T06:33:04;9.85;;;5.45;;
78834;SDS011;68187;42.682;23.352;2023-04-15T06:35:32;9.32;;;4.70;;
78834;SDS011;68187;42.682;23.352;2023-04-15T06:37:59;9.57;;;4.85;;
78834;SDS011;68187;42.682;23.352;2023-04-15T06:40:26;8.60;;;4.53;;
78834;SDS011;68187;42.682;23.352;2023-04-15T06:42:53;10.75;;;4.85;;
78834;SDS011;68187;42.682;23.352;2023-04-15T06:45:20;9.68;;;4.38;;
78834;SDS011;68187;42.682;23.352;2023-04-15T06:47:47;7.20;;;3.90;;
78834;SDS011;68187;42.682;23.352;2023-04-15T06:50:13;8.55;;;4.28;;
78834;SDS011;68187;42.682;23.352;2023-04-15T06:52:42;8.65;;;3.75;;
78834;SDS011;68187;42.682;23.352;2023-04-15T06:55:08;7.75;;;3.33;;
78834;SDS011;68187;42.682;23.352;2023-04-15T06:57:35;11.65;;;4.72;;
78834;SDS011;68187;42.682;23.352;2023-04-15T07:00:02;10.25;;;3.75;;
78834;SDS011;68187;42.682;23.352;2023-04-15T07:02:31;9.18;;;3.28;;
78834;SDS011;68187;42.682;23.352;2023-04-15T07:04:58;7.75;;;3.25;;
78834;SDS011;68187;42.682;23.352;2023-04-15T07:07:25;6.95;;;3.08;;
78834;SDS011;68187;42.682;23.352;2023-04-15T07:09:53;9.13;;;4.00;;
78834;SDS011;68187;42.682;23.352;2023-04-15T07:12:20;7.05;;;3.75;;
78834;SDS011;68187;42.682;23.352;2023-04-15T07:14:47;8.43;;;3.42;;
78834;SDS011;68187;42.682;23.352;2023-04-15T07:17:14;7.10;;;3.22;;
78834;SDS011;68187;42.682;23.352;2023-04-15T07:19:41;8.93;;;4.70;;
78834;SDS011;68187;42.682;23.352;2023-04-15T07:22:07;8.10;;;3.78;;
78834;SDS011;68187;42.682;23.352;2023-04-15T07:24:34;7.78;;;3.65;;
78834;SDS011;68187;42.682;23.352;2023-04-15T07:27:02;7.70;;;3.58;;
78834;SDS011;68187;42.682;23.352;2023-04-15T07:29:29;8.32;;;3.88;;
78834;SDS011;68187;42.682;23.352;2023-04-15T07:31:56;8.63;;;4.45;;
78834;SDS011;68187;42.682;23.352;2023-04-15T07:34:22;9.20;;;3.80;;
78834;SDS011;68187;42.682;23.352;2023-04-15T07:36:49;6.60;;;3.97;;
78834;SDS011;68187;42.682;23.352;2023-04-15T07:39:16;9.43;;;4.03;;
78834;SDS011;68187;42.682;23.352;2023-04-15T07:41:43;7.88;;;3.25;;
78834;SDS011;68187;42.682;23.352;2023-04-15T07:44:12;7.75;;;3.60;;
78834;SDS011;68187;42.682;23.352;2023-04-15T07:46:38;8.88;;;3.40;;
78834;SDS011;68187;42.682;23.352;2023-04-15T07:49:05;6.75;;;2.65;;
78834;SDS011;68187;42.682;23.352;2023-04-15T07:51:32;8.48;;;3.92;;
78834;SDS011;68187;42.682;23.352;2023-04-15T07:53:59;8.70;;;3.85;;
78834;SDS011;68187;42.682;23.352;2023-04-15T07:56:25;6.22;;;2.92;;
78834;SDS011;68187;42.682;23.352;2023-04-15T07:58:52;8.70;;;4.03;;
78834;SDS011;68187;42.682;23.352;2023-04-15T08:01:20;8.82;;;3.88;;
78834;SDS011;68187;42.682;23.352;2023-04-15T08:03:47;8.77;;;4.63;;
78834;SDS011;68187;42.682;23.352;2023-04-15T08:06:14;9.38;;;3.80;;
78834;SDS011;68187;42.682;23.352;2023-04-15T08:08:40;10.85;;;4.03;;
78834;SDS011;68187;42.682;23.352;2023-04-15T08:11:08;10.05;;;4.20;;
78834;SDS011;68187;42.682;23.352;2023-04-15T08:13:35;9.02;;;3.42;;
78834;SDS011;68187;42.682;23.352;2023-04-15T08:16:16;9.07;;;3.28;;
78834;SDS011;68187;42.682;23.352;2023-04-15T08:18:45;9.23;;;2.95;;
78834;SDS011;68187;42.682;23.352;2023-04-15T08:21:12;12.48;;;3.60;;
78834;SDS011;68187;42.682;23.352;2023-04-15T08:23:39;8.13;;;2.75;;
78834;SDS011;68187;42.682;23.352;2023-04-15T08:26:06;5.22;;;2.22;;
78834;SDS011;68187;42.682;23.352;2023-04-15T08:28:34;7.57;;;3.03;;
78834;SDS011;68187;42.682;23.352;2023-04-15T08:31:01;7.53;;;3.85;;
78834;SDS011;68187;42.682;23.352;2023-04-15T08:33:28;7.80;;;3.75;;
78834;SDS011;68187;42.682;23.352;2023-04-15T08:35:56;8.25;;;4.10;;
78834;SDS011;68187;42.682;23.352;2023-04-15T08:38:23;8.80;;;3.97;;
78834;SDS011;68187;42.682;23.352;2023-04-15T08:40:49;8.65;;;3.25;;
78834;SDS011;68187;42.682;23.352;2023-04-15T08:43:19;10.23;;;3.00;;
78834;SDS011;68187;42.682;23.352;2023-04-15T08:48:16;9.95;;;3.75;;
78834;SDS011;68187;42.682;23.352;2023-04-15T08:50:43;6.97;;;2.67;;
78834;SDS011;68187;42.682;23.352;2023-04-15T08:53:12;7.53;;;3.25;;
78834;SDS011;68187;42.682;23.352;2023-04-15T08:55:41;9.25;;;3.55;;
78834;SDS011;68187;42.682;23.352;2023-04-15T08:58:10;6.07;;;2.28;;
78834;SDS011;68187;42.682;23.352;2023-04-15T09:00:37;4.63;;;1.95;;
78834;SDS011;68187;42.682;23.352;2023-04-15T09:03:05;7.10;;;3.15;;
78834;SDS011;68187;42.682;23.352;2023-04-15T09:05:32;8.38;;;2.38;;
78834;SDS011;68187;42.682;23.352;2023-04-15T09:07:59;7.72;;;2.60;;
78834;SDS011;68187;42.682;23.352;2023-04-15T09:10:28;7.25;;;2.40;;
78834;SDS011;68187;42.682;23.352;2023-04-15T09:12:55;6.25;;;2.38;;
78834;SDS011;68187;42.682;23.352;2023-04-15T09:15:22;6.80;;;1.77;;
78834;SDS011;68187;42.682;23.352;2023-04-15T09:17:51;5.43;;;1.77;;
78834;SDS011;68187;42.682;23.352;2023-04-15T09:20:18;5.78;;;1.45;;
78834;SDS011;68187;42.682;23.352;2023-04-15T09:22:46;5.75;;;1.90;;
78834;SDS011;68187;42.682;23.352;2023-04-15T09:25:28;6.03;;;1.90;;
78834;SDS011;68187;42.682;23.352;2023-04-15T09:27:55;5.95;;;1.45;;
78834;SDS011;68187;42.682;23.352;2023-04-15T09:30:23;8.40;;;1.80;;
78834;SDS011;68187;42.682;23.352;2023-04-15T09:32:51;4.80;;;1.52;;
78834;SDS011;68187;42.682;23.352;2023-04-15T09:35:18;5.78;;;2.03;;
78834;SDS011;68187;42.682;23.352;2023-04-15T09:37:46;4.40;;;1.20;;
78834;SDS011;68187;42.682;23.352;2023-04-15T09:40:13;4.20;;;1.42;;
78834;SDS011;68187;42.682;23.352;2023-04-15T09:42:54;6.10;;;1.42;;
78834;SDS011;68187;42.682;23.352;2023-04-15T09:45:21;5.18;;;1.90;;
78834;SDS011;68187;42.682;23.352;2023-04-15T09:47:49;3.60;;;1.13;;
78834;SDS011;68187;42.682;23.352;2023-04-15T09:50:17;3.83;;;1.52;;
78834;SDS011;68187;42.682;23.352;2023-04-15T09:52:44;6.93;;;1.48;;
78834;SDS011;68187;42.682;23.352;2023-04-15T09:55:12;5.32;;;1.15;;
78834;SDS011;68187;42.682;23.352;2023-04-15T09:57:40;5.28;;;1.17;;
78834;SDS011;68187;42.682;23.352;2023-04-15T10:00:10;6.43;;;2.75;;
78834;SDS011;68187;42.682;23.352;2023-04-15T10:02:38;5.75;;;1.23;;
78834;SDS011;68187;42.682;23.352;2023-04-15T10:05:06;4.03;;;1.17;;
78834;SDS011;68187;42.682;23.352;2023-04-15T10:07:36;3.88;;;1.65;;
78834;SDS011;68187;42.682;23.352;2023-04-15T10:10:05;4.72;;;1.52;;
78834;SDS011;68187;42.682;23.352;2023-04-15T10:12:33;3.80;;;1.15;;
78834;SDS011;68187;42.682;23.352;2023-04-15T10:15:03;3.75;;;1.58;;
78834;SDS011;68187;42.682;23.352;2023-04-15T10:17:32;4.53;;;1.65;;
78834;SDS011;68187;42.682;23.352;2023-04-15T10:20:01;3.50;;;0.90;;
78834;SDS011;68187;42.682;23.352;2023-04-15T10:22:29;5.25;;;1.50;;
78834;SDS011;68187;42.682;23.352;2023-04-15T10:24:57;5.05;;;0.82;;
78834;SDS011;68187;42.682;23.352;2023-04-15T10:27:25;3.97;;;0.88;;
78834;SDS011;68187;42.682;23.352;2023-04-15T10:29:52;4.32;;;0.85;;
78834;SDS011;68187;42.682;23.352;2023-04-15T10:32:20;4.97;;;1.05;;
78834;SDS011;68187;42.682;23.352;2023-04-15T10:34:48;4.75;;;0.90;;
78834;SDS011;68187;42.682;23.352;2023-04-15T10:37:20;3.90;;;1.15;;
78834;SDS011;68187;42.682;23.352;2023-04-15T10:39:47;5.75;;;1.13;;
78834;SDS011;68187;42.682;23.352;2023-04-15T10:42:15;3.10;;;0.75;;
78834;SDS011;68187;42.682;23.352;2023-04-15T10:44:43;4.25;;;1.48;;
78834;SDS011;68187;42.682;23.352;2023-04-15T10:47:14;3.38;;;0.73;;
78834;SDS011;68187;42.682;23.352;2023-04-15T10:49:49;5.30;;;0.75;;
78834;SDS011;68187;42.682;23.352;2023-04-15T10:52:21;3.25;;;0.82;;
78834;SDS011;68187;42.682;23.352;2023-04-15T10:54:50;3.63;;;0.85;;
78834;SDS011;68187;42.682;23.352;2023-04-15T11:00:09;3.58;;;1.52;;
78834;SDS011;68187;42.682;23.352;2023-04-15T11:02:38;4.80;;;1.45;;
78834;SDS011;68187;42.682;23.352;2023-04-15T11:05:07;3.85;;;1.27;;
78834;SDS011;68187;42.682;23.352;2023-04-15T11:07:35;3.83;;;0.77;;
78834;SDS011;68187;42.682;23.352;2023-04-15T11:10:03;4.03;;;0.70;;
78834;SDS011;68187;42.682;23.352;2023-04-15T11:12:50;7.25;;;1.42;;
78834;SDS011;68187;42.682;23.352;2023-04-15T11:15:26;4.32;;;1.10;;
78834;SDS011;68187;42.682;23.352;2023-04-15T11:17:55;6.43;;;1.67;;
78834;SDS011;68187;42.682;23.352;2023-04-15T11:20:23;4.82;;;1.25;;
78834;SDS011;68187;42.682;23.352;2023-04-15T11:22:52;4.13;;;1.00;;
78834;SDS011;68187;42.682;23.352;2023-04-15T11:25:22;4.85;;;0.70;;
78834;SDS011;68187;42.682;23.352;2023-04-15T11:27:50;3.15;;;1.13;;
78834;SDS011;68187;42.682;23.352;2023-04-15T11:30:19;3.88;;;0.93;;
78834;SDS011;68187;42.682;23.352;2023-04-15T11:32:47;4.93;;;1.13;;
78834;SDS011;68187;42.682;23.352;2023-04-15T11:35:14;4.20;;;0.95;;
78834;SDS011;68187;42.682;23.352;2023-04-15T11:37:43;4.88;;;1.00;;
78834;SDS011;68187;42.682;23.352;2023-04-15T11:40:11;5.50;;;0.90;;
78834;SDS011;68187;42.682;23.352;2023-04-15T11:42:39;5.35;;;1.02;;
78834;SDS011;68187;42.682;23.352;2023-04-15T11:45:07;3.67;;;1.08;;
78834;SDS011;68187;42.682;23.352;2023-04-15T11:47:35;2.80;;;0.70;;
78834;SDS011;68187;42.682;23.352;2023-04-15T11:50:15;2.05;;;0.95;;
78834;SDS011;68187;42.682;23.352;2023-04-15T11:52:52;2.90;;;1.10;;
78834;SDS011;68187;42.682;23.352;2023-04-15T11:55:20;3.00;;;0.52;;
78834;SDS011;68187;42.682;23.352;2023-04-15T11:57:48;2.22;;;0.50;;
78834;SDS011;68187;42.682;23.352;2023-04-15T12:00:15;2.85;;;1.17;;
78834;SDS011;68187;42.682;23.352;2023-04-15T12:02:42;3.58;;;0.50;;
78834;SDS011;68187;42.682;23.352;2023-04-15T12:05:09;2.78;;;0.88;;
78834;SDS011;68187;42.682;23.352;2023-04-15T12:10:25;3.42;;;0.43;;
78834;SDS011;68187;42.682;23.352;2023-04-15T12:12:52;2.05;;;0.75;;
78834;SDS011;68187;42.682;23.352;2023-04-15T12:15:20;3.88;;;0.75;;
78834;SDS011;68187;42.682;23.352;2023-04-15T12:17:48;3.00;;;0.80;;
78834;SDS011;68187;42.682;23.352;2023-04-15T12:20:20;2.45;;;0.75;;
78834;SDS011;68187;42.682;23.352;2023-04-15T12:22:50;2.63;;;0.70;;
78834;SDS011;68187;42.682;23.352;2023-04-15T12:25:18;2.40;;;0.70;;
78834;SDS011;68187;42.682;23.352;2023-04-15T12:27:59;3.55;;;0.88;;
78834;SDS011;68187;42.682;23.352;2023-04-15T12:30:26;2.03;;;0.60;;
78834;SDS011;68187;42.682;23.352;2023-04-15T12:32:52;2.08;;;0.52;;
78834;SDS011;68187;42.682;23.352;2023-04-15T12:35:19;2.17;;;0.80;;
78834;SDS011;68187;42.682;23.352;2023-04-15T12:37:47;2.22;;;0.65;;
78834;SDS011;68187;42.682;23.352;2023-04-15T12:40:13;2.03;;;0.45;;
78834;SDS011;68187;42.682;23.352;2023-04-15T12:42:42;2.38;;;1.10;;
78834;SDS011;68187;42.682;23.352;2023-04-15T12:45:08;3.20;;;0.68;;
78834;SDS011;68187;42.682;23.352;2023-04-15T12:47:35;1.08;;;0.30;;
78834;SDS011;68187;42.682;23.352;2023-04-15T12:50:02;2.33;;;0.70;;
78834;SDS011;68187;42.682;23.352;2023-04-15T12:52:29;2.88;;;0.68;;
78834;SDS011;68187;42.682;23.352;2023-04-15T12:54:56;2.15;;;0.60;;
78834;SDS011;68187;42.682;23.352;2023-04-15T12:57:23;2.58;;;0.90;;
78834;SDS011;68187;42.682;23.352;2023-04-15T12:59:51;2.67;;;0.75;;
78834;SDS011;68187;42.682;23.352;2023-04-15T13:02:17;4.32;;;1.70;;
78834;SDS011;68187;42.682;23.352;2023-04-15T13:04:45;2.40;;;0.55;;
78834;SDS011;68187;42.682;23.352;2023-04-15T13:07:11;5.97;;;1.15;;
78834;SDS011;68187;42.682;23.352;2023-04-15T13:09:39;2.67;;;0.93;;
78834;SDS011;68187;42.682;23.352;2023-04-15T13:12:06;3.28;;;1.13;;
78834;SDS011;68187;42.682;23.352;2023-04-15T13:14:33;1.80;;;0.82;;
78834;SDS011;68187;42.682;23.352;2023-04-15T13:17:01;1.88;;;0.75;;
78834;SDS011;68187;42.682;23.352;2023-04-15T13:19:33;2.08;;;0.43;;
78834;SDS011;68187;42.682;23.352;2023-04-15T13:22:00;2.10;;;0.70;;
78834;SDS011;68187;42.682;23.352;2023-04-15T13:24:27;3.08;;;0.77;;
78834;SDS011;68187;42.682;23.352;2023-04-15T13:26:54;3.22;;;0.85;;
78834;SDS011;68187;42.682;23.352;2023-04-15T13:29:23;1.77;;;0.55;;
78834;SDS011;68187;42.682;23.352;2023-04-15T13:31:49;4.90;;;0.88;;
78834;SDS011;68187;42.682;23.352;2023-04-15T13:34:18;2.60;;;0.85;;
78834;SDS011;68187;42.682;23.352;2023-04-15T13:36:44;2.72;;;0.73;;
78834;SDS011;68187;42.682;23.352;2023-04-15T13:39:12;3.03;;;0.80;;
78834;SDS011;68187;42.682;23.352;2023-04-15T13:41:39;4.65;;;0.50;;
78834;SDS011;68187;42.682;23.352;2023-04-15T13:44:05;3.13;;;0.57;;
78834;SDS011;68187;42.682;23.352;2023-04-15T13:46:32;3.20;;;0.60;;
78834;SDS011;68187;42.682;23.352;2023-04-15T13:48:59;2.85;;;1.38;;
78834;SDS011;68187;42.682;23.352;2023-04-15T13:51:27;2.53;;;0.93;;
78834;SDS011;68187;42.682;23.352;2023-04-15T13:53:54;1.90;;;0.55;;
78834;SDS011;68187;42.682;23.352;2023-04-15T13:56:22;1.85;;;0.57;;
78834;SDS011;68187;42.682;23.352;2023-04-15T13:58:49;2.60;;;0.63;;
78834;SDS011;68187;42.682;23.352;2023-04-15T14:01:18;3.00;;;0.70;;
78834;SDS011;68187;42.682;23.352;2023-04-15T14:03:45;2.15;;;0.50;;
78834;SDS011;68187;42.682;23.352;2023-04-15T14:06:12;2.70;;;0.82;;
78834;SDS011;68187;42.682;23.352;2023-04-15T14:08:40;3.10;;;0.82;;
78834;SDS011;68187;42.682;23.352;2023-04-15T14:11:07;2.15;;;0.52;;
78834;SDS011;68187;42.682;23.352;2023-04-15T14:13:33;2.78;;;0.45;;
78834;SDS011;68187;42.682;23.352;2023-04-15T14:16:00;2.55;;;0.52;;
78834;SDS011;68187;42.682;23.352;2023-04-15T14:18:27;3.10;;;0.55;;
78834;SDS011;68187;42.682;23.352;2023-04-15T14:20:54;2.28;;;0.52;;
78834;SDS011;68187;42.682;23.352;2023-04-15T14:23:21;2.80;;;0.70;;
78834;SDS011;68187;42.682;23.352;2023-04-15T14:25:50;3.00;;;0.73;;
78834;SDS011;68187;42.682;23.352;2023-04-15T14:28:16;2.30;;;0.60;;
78834;SDS011;68187;42.682;23.352;2023-04-15T14:30:43;3.80;;;0.65;;
78834;SDS011;68187;42.682;23.352;2023-04-15T14:33:10;3.05;;;1.00;;
78834;SDS011;68187;42.682;23.352;2023-04-15T14:35:37;3.95;;;1.10;;
78834;SDS011;68187;42.682;23.352;2023-04-15T14:38:04;2.72;;;0.73;;
78834;SDS011;68187;42.682;23.352;2023-04-15T14:40:34;2.78;;;0.50;;
78834;SDS011;68187;42.682;23.352;2023-04-15T14:43:02;3.45;;;0.82;;